Time;durP1;ratioP1;P1;durP2;ratioP2;P2;SDS_P1;SDS_P2;PMS_P1;PMS_P2;Temp;Humidity;BMP_temperature;BMP_pressure;BME280_temperature;BME280_humidity;BME280_pressure;Samples;Min_cycle;Max_cycle;Signal;HPM_P1;HPM_P2
2022/06/14 11:34:27;;;;;;;4.25;1.48;;;;;;;26.17;35.17;102205.22;5074682;27;20446;-71
2022/06/14 11:37:13;;;;;;;5.32;1.48;;;;;;;26.43;35.42;102209.81;5040275;28;20377;-73
2022/06/14 11:39:48;;;;;;;4.00;1.40;;;;;;;26.37;35.15;102205.53;5061655;28;20037;-78
2022/06/14 11:42:43;;;;;;;2.75;1.27;;;;;;;26.37;35.42;102204.66;5041166;28;20341;-77
2022/06/14 11:45:08;;;;;;;2.15;1.30;;;;;;;26.57;34.89;102197.75;5047647;28;20028;-72
2022/06/14 11:47:45;;;;;;;3.50;1.40;;;;;;;26.47;35.04;102198.94;5063615;28;20082;-72
2022/06/14 11:50:13;;;;;;;3.75;1.50;;;;;;;26.55;34.34;102190.69;5063049;28;20112;-71
2022/06/14 11:52:51;;;;;;;4.97;1.30;;;;;;;26.55;34.02;102194.25;5047450;28;20056;-71
2022/06/14 11:55:26;;;;;;;2.53;1.30;;;;;;;26.38;34.41;102199.25;5056115;28;20038;-74
2022/06/14 11:58:05;;;;;;;3.67;1.38;;;;;;;26.36;34.67;102195.75;5043140;28;20025;-73
2022/06/14 12:00:52;;;;;;;4.07;1.30;;;;;;;26.35;34.55;102195.81;5042341;28;20025;-73
2022/06/14 12:03:17;;;;;;;4.65;1.30;;;;;;;26.43;34.34;102191.09;5046906;28;20028;-73
2022/06/14 12:05:52;;;;;;;4.07;1.40;;;;;;;26.66;33.99;102188.53;5044387;28;20115;-76
2022/06/14 12:08:48;;;;;;;4.97;1.52;;;;;;;26.45;34.44;102187.44;5042362;28;20501;-75
2022/06/14 12:11:20;;;;;;;7.30;1.60;;;;;;;26.58;33.96;102182.59;5058482;28;20411;-72
2022/06/14 12:14:11;;;;;;;4.10;1.33;;;;;;;26.80;33.54;102177.38;5038365;28;20037;-68
2022/06/14 12:16:40;;;;;;;5.68;1.60;;;;;;;26.71;34.05;102183.06;5043254;28;20025;-68
2022/06/14 12:19:20;;;;;;;4.57;1.70;;;;;;;26.79;33.68;102186.34;5045162;28;20098;-67
2022/06/14 12:21:48;;;;;;;4.18;1.90;;;;;;;26.59;33.62;102189.69;5044398;28;20102;-67
2022/06/14 12:26:34;;;;;;;5.15;1.52;;;;;;;26.52;33.66;102180.97;5044679;28;20032;-68
2022/06/14 12:27:18;;;;;;;4.97;1.60;;;;;;;26.67;33.44;102172.44;5041073;28;20484;-68
2022/06/14 12:29:47;;;;;;;3.30;1.58;;;;;;;26.73;33.30;102178.50;5042583;28;20494;-67
2022/06/14 12:32:18;;;;;;;2.50;1.65;;;;;;;26.81;33.74;102176.47;5043082;28;20045;-68
2022/06/14 12:34:50;;;;;;;6.00;1.60;;;;;;;26.79;34.14;102164.94;5043488;28;20044;-68
2022/06/14 12:37:24;;;;;;;7.35;1.70;;;;;;;26.71;33.64;102172.34;5043137;28;20025;-67
2022/06/14 12:39:49;;;;;;;4.10;1.52;;;;;;;26.64;33.69;102163.66;5044176;28;20029;-69
2022/06/14 12:42:20;;;;;;;2.65;1.50;;;;;;;26.64;33.27;102164.53;5043811;28;20082;-67
2022/06/14 12:45:02;;;;;;;3.60;1.90;;;;;;;26.62;33.34;102158.34;5033321;28;20122;-67
2022/06/14 12:47:35;;;;;;;8.75;1.60;;;;;;;26.58;34.06;102164.75;5042871;28;20086;-70
2022/06/14 12:50:15;;;;;;;6.83;1.70;;;;;;;26.75;33.69;102156.16;5029230;28;20026;-73
2022/06/14 12:52:47;;;;;;;4.25;1.40;;;;;;;26.87;33.48;102155.72;5027801;28;20029;-73
2022/06/14 12:55:16;;;;;;;2.65;1.48;;;;;;;26.79;33.33;102143.53;5027492;28;20156;-74
2022/06/14 12:58:07;;;;;;;2.75;1.42;;;;;;;26.90;33.54;102144.94;5028985;28;20104;-73
2022/06/14 13:01:01;;;;;;;3.50;1.50;;;;;;;26.82;33.31;102147.00;5031273;28;20063;-68
2022/06/14 13:03:39;;;;;;;3.97;1.48;;;;;;;26.75;33.29;102141.88;5033195;28;20379;-68
2022/06/14 13:06:23;;;;;;;3.38;1.50;;;;;;;26.65;33.06;102144.84;5023320;28;20490;-68
2022/06/14 13:08:58;;;;;;;3.97;1.73;;;;;;;26.69;32.93;102139.41;5032885;28;20514;-68
2022/06/14 13:11:32;;;;;;;2.78;1.60;;;;;;;26.66;32.51;102132.34;5024081;28;20026;-68
2022/06/14 13:14:01;;;;;;;5.40;1.50;;;;;;;26.61;32.43;102127.16;5033080;28;20457;-68
2022/06/14 13:16:31;;;;;;;4.43;1.48;;;;;;;26.69;32.25;102132.28;5047628;28;20053;-68
2022/06/14 13:19:20;;;;;;;4.65;1.70;;;;;;;26.63;32.62;102125.31;5032298;28;20035;-67
2022/06/14 13:22:00;;;;;;;4.47;1.60;;;;;;;26.63;32.75;102121.78;5038733;28;20051;-66
2022/06/14 13:25:18;;;;;;;3.15;1.45;;;;;;;26.64;32.95;102126.22;5030654;28;20332;-67
2022/06/14 13:28:30;;;;;;;3.70;1.40;;;;;;;26.64;32.93;102118.19;5032605;28;20034;-67
2022/06/14 13:31:39;;;;;;;3.45;1.60;;;;;;;26.63;32.86;102119.97;4990344;28;20030;-67
2022/06/14 13:34:30;;;;;;;2.25;1.48;;;;;;;26.63;33.17;102122.66;4990261;28;20092;-67
2022/06/14 13:37:23;;;;;;;3.65;1.30;;;;;;;26.63;33.25;102119.09;5030196;28;20056;-67
2022/06/14 13:39:56;;;;;;;3.38;1.50;;;;;;;26.61;32.94;102121.81;5029651;28;20067;-67
2022/06/14 13:42:32;;;;;;;2.47;1.40;;;;;;;26.65;33.21;102111.91;5032723;28;20025;-67
2022/06/14 13:45:08;;;;;;;2.75;1.33;;;;;;;26.65;32.92;102118.09;5047673;28;20656;-66
2022/06/14 13:47:50;;;;;;;3.00;1.40;;;;;;;26.65;33.08;102111.91;5027322;28;20033;-67
2022/06/14 13:50:26;;;;;;;3.88;1.45;;;;;;;26.66;33.37;102102.94;5032509;28;20025;-67
2022/06/14 13:53:17;;;;;;;5.22;1.60;;;;;;;26.82;33.14;102112.19;5029382;28;20021;-67
2022/06/14 13:55:54;;;;;;;2.03;1.33;;;;;;;26.81;33.27;102106.91;5030871;28;20036;-67
2022/06/14 13:58:33;;;;;;;5.18;1.45;;;;;;;26.75;33.50;102107.97;5045698;28;20591;-66
2022/06/14 14:01:08;;;;;;;4.38;1.98;;;;;;;26.75;33.78;102099.97;5025066;28;20059;-66
2022/06/14 14:03:43;;;;;;;4.90;1.40;;;;;;;26.74;33.84;102102.69;5028361;28;20028;-66
2022/06/14 14:06:11;;;;;;;2.42;1.40;;;;;;;26.79;33.52;102106.06;5029670;28;20033;-66
2022/06/14 14:09:03;;;;;;;3.20;1.40;;;;;;;26.73;33.94;102107.16;5029792;28;20139;-66
2022/06/14 14:11:52;;;;;;;7.25;1.40;;;;;;;26.70;34.12;102104.59;5029637;28;20475;-66
2022/06/14 14:14:31;;;;;;;6.15;1.67;;;;;;;26.72;34.20;102101.84;5027351;28;20038;-67
2022/06/14 14:17:06;;;;;;;5.57;1.63;;;;;;;26.80;34.21;102105.13;5028996;28;20644;-74
2022/06/14 14:19:52;;;;;;;3.65;1.60;;;;;;;26.95;33.80;102099.31;5030926;28;20553;-66
2022/06/14 14:22:28;;;;;;;7.45;1.50;;;;;;;27.02;33.93;102092.78;5022718;28;20044;-66
2022/06/14 14:24:59;;;;;;;5.50;1.40;;;;;;;27.06;34.02;102097.13;5028424;28;20167;-66
2022/06/14 14:27:36;;;;;;;5.65;1.40;;;;;;;26.96;34.39;102093.88;5030822;28;20075;-68
2022/06/14 14:30:11;;;;;;;4.82;1.50;;;;;;;26.82;34.93;102090.78;5028863;28;20029;-68
2022/06/14 14:32:47;;;;;;;5.72;1.67;;;;;;;26.84;34.90;102085.38;5038911;28;20045;-68
2022/06/14 14:35:19;;;;;;;6.13;1.30;;;;;;;26.84;34.55;102088.03;5027846;28;20055;-68
2022/06/14 14:38:25;;;;;;;6.47;1.60;;;;;;;26.86;34.64;102091.53;5028808;28;20442;-68
2022/06/14 14:41:33;;;;;;;6.47;1.60;;;;;;;26.73;34.29;102084.88;5027750;28;20411;-68
2022/06/14 14:44:23;;;;;;;5.38;1.50;;;;;;;26.70;34.11;102085.88;5027657;28;20037;-68
2022/06/14 14:47:14;;;;;;;4.80;1.58;;;;;;;26.78;34.43;102093.59;5013910;28;20465;-68
2022/06/14 14:49:46;;;;;;;5.97;1.45;;;;;;;26.69;34.60;102092.13;5019270;28;20048;-67
2022/06/14 14:52:31;;;;;;;6.97;1.60;;;;;;;26.59;34.58;102093.41;5027226;28;20030;-67
2022/06/14 14:55:32;;;;;;;6.20;1.55;;;;;;;26.44;34.21;102086.75;5030990;28;20033;-68
2022/06/14 14:58:12;;;;;;;5.15;1.73;;;;;;;26.52;34.00;102082.03;5019511;28;20049;-71
2022/06/14 15:06:47;;;;;;;8.70;1.67;;;;;;;26.49;34.04;102090.13;5024736;28;20142;-67
2022/06/14 15:09:34;;;;;;;8.13;1.60;;;;;;;26.79;34.23;102076.63;5027224;28;20391;-67
2022/06/14 15:12:15;;;;;;;5.13;1.60;;;;;;;26.89;34.35;102075.44;5022387;28;20077;-67
2022/06/14 15:14:40;;;;;;;9.10;2.88;;;;;;;26.81;35.38;102069.44;5009843;28;20036;-70
2022/06/14 15:19:59;;;;;;;11.70;4.10;;;;;;;27.12;35.29;102077.28;5027935;28;20056;-66
2022/06/14 15:22:33;;;;;;;12.60;5.82;;;;;;;26.98;36.41;102070.63;5028735;28;20131;-68
2022/06/14 15:25:24;;;;;;;9.35;4.45;;;;;;;27.17;36.10;102061.91;5029071;28;20032;-67
2022/06/14 15:27:58;;;;;;;9.40;4.30;;;;;;;27.20;36.18;102065.34;5028391;28;20048;-66
2022/06/14 15:30:42;;;;;;;;;;;;;;;27.25;36.81;102066.06;5028848;28;20029;-67
2022/06/14 15:33:28;;;;;;;8.27;4.57;;;;;;;27.20;37.45;102057.31;5028965;28;19921;-67
2022/06/14 15:36:04;;;;;;;12.55;4.70;;;;;;;27.23;37.99;102056.31;5028252;28;20025;-67
2022/06/14 15:38:49;;;;;;;9.75;4.63;;;;;;;27.20;37.77;102048.44;5023601;28;20057;-67
2022/06/14 15:41:20;;;;;;;8.50;3.88;;;;;;;27.26;37.80;102050.88;5028802;28;20036;-67
2022/06/14 15:44:13;;;;;;;8.63;4.30;;;;;;;27.17;38.18;102046.72;5030032;28;20095;-67
2022/06/14 15:47:02;;;;;;;9.43;4.15;;;;;;;27.15;38.15;102045.03;5031556;28;20091;-67
2022/06/14 15:49:36;;;;;;;12.05;3.95;;;;;;;27.17;38.38;102043.16;5044097;28;20451;-67
2022/06/14 15:52:13;;;;;;;9.10;4.03;;;;;;;27.21;37.92;102043.00;5029275;28;20033;-67
2022/06/14 15:54:40;;;;;;;9.00;4.50;;;;;;;27.21;38.38;102034.09;5028694;28;20068;-67
2022/06/14 15:57:26;;;;;;;11.18;4.47;;;;;;;27.22;38.13;102038.50;5027646;28;20113;-67
2022/06/14 16:00:27;;;;;;;7.35;3.75;;;;;;;27.15;38.25;102035.19;5027464;28;20479;-67
2022/06/14 16:03:12;;;;;;;8.23;3.72;;;;;;;27.13;38.39;102028.16;5024477;28;20038;-67
2022/06/14 16:05:58;;;;;;;7.88;3.78;;;;;;;26.93;38.34;102029.75;5029035;28;20017;-67
2022/06/14 16:08:31;;;;;;;9.02;3.30;;;;;;;26.96;37.37;102028.75;5028381;28;20048;-67
2022/06/14 16:11:12;;;;;;;6.93;3.03;;;;;;;26.89;36.70;102024.59;5029765;28;20132;-67
2022/06/14 16:13:54;;;;;;;7.80;2.97;;;;;;;26.85;36.70;102026.44;5029833;28;20033;-67
2022/06/14 16:16:45;;;;;;;6.38;2.70;;;;;;;26.81;36.50;102021.28;5028601;28;20028;-66
2022/06/14 16:20:15;;;;;;;9.27;3.10;;;;;;;26.89;36.31;102019.22;5031106;28;20025;-66
2022/06/14 16:22:41;;;;;;;7.80;2.92;;;;;;;26.86;36.61;102025.53;4943300;29;20039;-66
2022/06/14 16:25:14;;;;;;;8.75;2.60;;;;;;;26.88;36.17;102014.78;5031495;28;20475;-67
2022/06/14 16:27:40;;;;;;;6.80;2.55;;;;;;;26.95;36.72;102008.31;5030480;28;20060;-67
2022/06/14 16:30:30;;;;;;;7.28;2.60;;;;;;;27.01;36.28;102014.31;5031631;28;20061;-67
2022/06/14 16:33:13;;;;;;;8.32;2.67;;;;;;;27.11;36.54;102011.28;5031975;28;20140;-68
2022/06/14 16:35:42;;;;;;;;;;;;;;;27.09;36.85;102010.44;5025006;28;20052;-68
2022/06/14 16:38:10;;;;;;;7.15;2.65;;;;;;;27.07;36.85;102006.97;5031611;28;20033;-68
2022/06/14 16:40:57;;;;;;;8.88;2.97;;;;;;;27.08;37.11;102006.06;5031015;28;20056;-67
2022/06/14 16:43:25;;;;;;;7.75;2.58;;;;;;;27.13;37.34;101999.59;5046788;28;20032;-67
2022/06/14 16:46:00;;;;;;;14.23;2.63;;;;;;;27.12;37.26;102003.19;5031377;28;20029;-68
2022/06/14 16:48:44;;;;;;;7.22;2.70;;;;;;;27.10;37.59;102005.03;5030621;28;20036;-67
2022/06/14 16:51:23;;;;;;;7.10;2.78;;;;;;;27.07;37.63;102002.50;5031092;28;20102;-68
2022/06/14 16:53:51;;;;;;;7.97;2.63;;;;;;;26.97;37.85;101995.72;5031413;28;20036;-68
2022/06/14 16:56:22;;;;;;;6.60;2.70;;;;;;;27.07;37.89;101990.91;5031320;28;20025;-68
2022/06/14 16:58:51;;;;;;;6.53;2.95;;;;;;;27.00;37.83;101990.28;5026473;28;20041;-68
2022/06/14 17:01:29;;;;;;;6.25;2.78;;;;;;;27.02;37.88;101994.63;5047036;28;20029;-68
2022/06/14 17:04:29;;;;;;;6.10;2.78;;;;;;;27.05;37.86;101997.19;5027265;28;20545;-68
2022/06/14 17:07:10;;;;;;;6.70;2.70;;;;;;;27.04;38.02;101999.91;5030140;28;20049;-67
2022/06/14 17:09:58;;;;;;;6.22;2.55;;;;;;;27.00;38.01;101995.63;5031088;28;20083;-67
2022/06/14 17:12:36;;;;;;;5.28;2.70;;;;;;;27.03;38.17;101990.13;5025032;28;20350;-67
2022/06/14 17:15:19;;;;;;;5.88;2.70;;;;;;;27.02;38.01;101997.28;5028789;28;20040;-67
2022/06/14 17:17:49;;;;;;;4.72;2.38;;;;;;;26.98;38.10;101990.31;5045833;28;20033;-67
2022/06/14 17:20:24;;;;;;;4.85;2.53;;;;;;;26.95;38.10;102000.28;5031029;28;20037;-67
2022/06/14 17:23:35;;;;;;;5.25;2.50;;;;;;;26.92;38.37;101989.66;5030994;28;20025;-67
2022/06/14 17:31:48;;;;;;;4.78;2.40;;;;;;;26.89;38.45;101981.78;5030291;28;20086;-67
2022/06/14 17:34:36;;;;;;;4.03;2.53;;;;;;;26.87;38.65;101987.13;5030877;28;20041;-67
2022/06/14 17:37:10;;;;;;;6.40;2.67;;;;;;;26.83;38.80;101985.50;5015286;28;20788;-68
2022/06/14 17:39:51;;;;;;;10.60;2.90;;;;;;;26.79;38.63;101978.50;5030434;28;20079;-68
2022/06/14 17:42:22;;;;;;;5.97;2.42;;;;;;;26.80;38.72;101980.25;5029990;28;20120;-68
2022/06/14 17:45:11;;;;;;;5.93;2.53;;;;;;;26.79;38.67;101975.84;5030327;28;20108;-68
2022/06/14 17:47:49;;;;;;;5.57;2.72;;;;;;;26.77;38.75;101988.41;5028033;28;20623;-69
2022/06/14 17:50:33;;;;;;;5.80;2.40;;;;;;;26.78;38.91;101976.75;5022131;28;20026;-68
2022/06/14 17:53:18;;;;;;;5.25;2.60;;;;;;;26.77;38.88;101977.72;5029520;28;20029;-68
2022/06/14 17:55:53;;;;;;;4.70;2.60;;;;;;;26.71;39.03;101983.28;5029109;28;20100;-68
2022/06/14 17:58:46;;;;;;;4.60;2.30;;;;;;;26.72;38.95;101984.13;5021871;28;20103;-69
2022/06/14 18:01:11;;;;;;;5.13;2.50;;;;;;;26.71;38.91;101985.09;5030581;28;20160;-69
2022/06/14 18:03:37;;;;;;;5.68;2.60;;;;;;;26.71;38.90;101985.09;5030192;28;20151;-68
2022/06/14 18:06:05;;;;;;;4.28;2.50;;;;;;;26.77;39.00;101984.88;5030418;28;20043;-68
2022/06/14 18:08:35;;;;;;;7.85;2.47;;;;;;;26.76;38.89;101988.47;5030615;28;20111;-68
2022/06/14 18:11:02;;;;;;;4.75;2.50;;;;;;;26.71;39.01;101985.09;5028769;28;20033;-68
2022/06/14 18:13:37;;;;;;;4.28;2.63;;;;;;;26.71;38.97;101985.97;5029894;28;20056;-68
2022/06/14 18:16:05;;;;;;;3.78;2.40;;;;;;;26.72;38.92;101990.34;5044231;28;20052;-69
2022/06/14 18:18:38;;;;;;;3.80;2.28;;;;;;;26.68;39.04;101994.09;5029830;28;20087;-69
2022/06/14 18:21:15;;;;;;;5.28;2.47;;;;;;;26.67;38.97;101990.53;5020498;28;20042;-69
2022/06/14 18:23:40;;;;;;;4.97;2.33;;;;;;;26.63;39.06;101996.94;5026590;28;20464;-69
2022/06/14 18:26:36;;;;;;;4.75;2.30;;;;;;;26.65;39.14;101992.38;5029546;28;20037;-69
2022/06/14 18:29:13;;;;;;;6.80;2.25;;;;;;;26.66;39.16;101987.91;5029100;28;20017;-69
2022/06/14 18:31:57;;;;;;;4.03;2.42;;;;;;;26.61;39.15;101988.06;5030195;28;20254;-68
2022/06/14 18:34:25;;;;;;;;;;;;;;;26.66;39.07;101990.56;5029719;28;20115;-68
2022/06/14 18:37:12;;;;;;;3.80;2.35;;;;;;;26.61;39.30;101990.75;5029740;28;19935;-68
2022/06/14 18:39:43;;;;;;;5.20;2.67;;;;;;;26.57;39.46;101985.56;5026261;28;20056;-68
2022/06/14 18:42:32;;;;;;;5.60;2.38;;;;;;;26.60;39.25;101982.78;5029259;28;20556;-68
2022/06/14 18:45:09;;;;;;;4.28;2.45;;;;;;;26.56;39.54;101990.03;4983553;28;20141;-67
2022/06/14 18:47:38;;;;;;;5.75;2.25;;;;;;;26.56;39.52;101984.69;5025065;28;20464;-68
2022/06/14 18:50:18;;;;;;;4.63;2.20;;;;;;;26.55;39.24;101985.63;5029738;28;20033;-67
2022/06/14 18:53:04;;;;;;;5.25;2.30;;;;;;;26.36;39.77;101986.31;5019700;28;20037;-68
2022/06/14 18:55:43;;;;;;;3.90;2.15;;;;;;;26.47;39.40;101982.34;5027613;28;20037;-68
2022/06/14 18:58:16;;;;;;;3.33;1.90;;;;;;;26.55;39.16;101980.28;5028492;28;20066;-68
2022/06/14 19:00:47;;;;;;;;;;;;;;;26.56;39.20;101976.66;5024537;28;20064;-71
2022/06/14 19:03:12;;;;;;;3.58;2.08;;;;;;;26.63;39.14;101978.22;5027697;28;19916;-71
2022/06/14 19:05:49;;;;;;;4.53;2.30;;;;;;;26.57;39.72;101977.56;5043324;28;20040;-71
2022/06/14 19:08:25;;;;;;;5.15;2.50;;;;;;;26.58;39.88;101981.97;5027425;28;20127;-72
2022/06/14 19:10:54;;;;;;;3.75;2.15;;;;;;;26.57;39.86;101974.88;5027806;28;20527;-72
2022/06/14 19:13:42;;;;;;;4.70;2.30;;;;;;;26.48;39.97;101983.22;5030342;28;20053;-71
2022/06/14 19:16:42;;;;;;;5.00;2.30;;;;;;;26.54;40.31;101980.31;5030647;28;20075;-68
2022/06/14 19:19:41;;;;;;;10.18;2.30;;;;;;;26.57;40.03;101989.13;5044953;28;20117;-68
2022/06/14 19:22:18;;;;;;;8.73;2.58;;;;;;;26.58;40.03;101990.00;5028658;28;20539;-68
2022/06/14 19:25:13;;;;;;;5.72;2.20;;;;;;;26.58;40.25;101992.69;5024353;28;20033;-69
2022/06/14 19:28:03;;;;;;;4.53;2.10;;;;;;;26.59;40.27;101994.44;5028638;28;20112;-69
2022/06/14 19:30:38;;;;;;;3.40;2.17;;;;;;;26.62;40.29;101995.19;5027760;28;20026;-69
2022/06/14 19:33:15;;;;;;;5.07;2.10;;;;;;;26.66;39.88;102001.28;5028172;28;20030;-69
2022/06/14 19:35:56;;;;;;;6.32;2.38;;;;;;;26.67;40.20;102003.03;5028360;28;20508;-69
2022/06/14 19:38:46;;;;;;;3.70;2.05;;;;;;;26.67;40.13;102000.34;5028491;28;20028;-69
2022/06/14 19:41:33;;;;;;;4.93;2.20;;;;;;;26.64;40.18;102004.03;5025927;28;20034;-68
2022/06/14 19:44:06;;;;;;;4.68;2.30;;;;;;;26.65;40.06;101999.56;5028290;28;20083;-68
2022/06/14 19:46:38;;;;;;;9.15;2.20;;;;;;;26.62;40.22;102002.31;5028489;28;20029;-68
2022/06/14 19:51:54;;;;;;;3.97;2.00;;;;;;;26.63;40.39;102007.63;5028722;28;20045;-68
2022/06/14 19:54:28;;;;;;;4.90;2.13;;;;;;;26.63;40.25;102009.44;5030687;28;20049;-68
2022/06/14 19:56:55;;;;;;;4.25;2.00;;;;;;;26.59;40.44;102002.44;5031551;28;20036;-69
2022/06/14 19:59:35;;;;;;;3.35;1.95;;;;;;;26.60;40.27;102013.06;5032727;28;20091;-69
2022/06/14 20:02:06;;;;;;;5.50;2.08;;;;;;;26.61;40.22;102008.59;5032652;28;20033;-68
2022/06/14 20:04:32;;;;;;;5.65;2.05;;;;;;;26.58;40.41;102011.41;5031137;28;20022;-69
2022/06/14 20:07:07;;;;;;;5.28;2.20;;;;;;;26.56;40.35;102014.13;5048189;28;20364;-69
2022/06/14 20:09:39;;;;;;;3.33;2.10;;;;;;;26.53;40.50;102024.06;5033088;28;20025;-68
2022/06/14 20:12:12;;;;;;;4.55;2.10;;;;;;;26.53;40.51;102018.72;5032004;28;20104;-68
2022/06/14 20:14:39;;;;;;;4.03;2.00;;;;;;;26.54;40.56;102021.31;5032092;28;20029;-69
2022/06/14 20:17:18;;;;;;;3.05;1.80;;;;;;;26.54;40.54;102018.63;5032878;28;20079;-69
2022/06/14 20:19:56;;;;;;;6.70;2.00;;;;;;;26.57;40.41;102023.00;5032046;28;20027;-69
2022/06/14 20:22:26;;;;;;;4.65;2.20;;;;;;;26.46;40.88;102028.75;5028051;28;20022;-69
2022/06/14 20:24:51;;;;;;;3.35;1.90;;;;;;;26.47;40.89;102022.44;5031769;28;20900;-69
2022/06/14 20:27:18;;;;;;;3.03;2.00;;;;;;;26.52;40.70;102025.88;5032518;28;20018;-69
2022/06/14 20:29:47;;;;;;;3.90;2.00;;;;;;;26.49;40.27;102020.59;5031680;28;20021;-69
2022/06/14 20:32:13;;;;;;;4.13;2.03;;;;;;;26.49;40.67;102022.41;5031312;28;20039;-69
2022/06/14 20:34:57;;;;;;;3.20;1.90;;;;;;;26.43;41.07;102026.16;5031745;28;20037;-69
2022/06/14 20:37:22;;;;;;;4.57;1.95;;;;;;;26.47;41.01;102019.78;5032184;28;20054;-69
2022/06/14 20:40:00;;;;;;;3.10;1.80;;;;;;;26.49;40.81;102019.72;5030470;28;20036;-69
2022/06/14 20:42:30;;;;;;;4.07;1.92;;;;;;;26.41;40.88;102013.78;5031157;28;20029;-68
2022/06/14 20:45:03;;;;;;;4.65;1.85;;;;;;;26.43;40.91;102018.13;5032001;28;20392;-68
2022/06/14 20:47:35;;;;;;;6.87;2.03;;;;;;;26.47;40.82;102022.44;5032262;28;20024;-68
2022/06/14 20:50:02;;;;;;;5.85;2.10;;;;;;;26.47;40.61;102018.94;5029334;28;20369;-69
2022/06/14 20:52:27;;;;;;;4.97;1.80;;;;;;;26.48;40.77;102021.53;5031455;28;20029;-69
2022/06/14 20:54:55;;;;;;;4.22;1.83;;;;;;;26.46;40.83;102023.41;5031110;28;20029;-69
2022/06/14 20:57:23;;;;;;;4.65;2.00;;;;;;;26.47;40.66;102010.91;5046704;28;20036;-69
2022/06/14 20:59:51;;;;;;;4.28;1.80;;;;;;;26.44;40.84;102014.53;5030681;28;20041;-69
2022/06/14 21:02:18;;;;;;;6.22;2.03;;;;;;;26.45;40.72;102010.94;5030932;28;20037;-69
2022/06/14 21:04:47;;;;;;;3.30;1.90;;;;;;;26.49;40.70;102003.69;5030097;28;20092;-69
2022/06/14 21:07:15;;;;;;;4.22;2.05;;;;;;;26.48;40.72;101999.25;5030919;28;20780;-69
2022/06/14 21:09:47;;;;;;;4.30;1.92;;;;;;;26.46;40.80;101996.66;5030188;28;20029;-69
2022/06/14 21:12:18;;;;;;;4.25;1.85;;;;;;;26.42;40.90;101995.00;5030665;28;20034;-70
2022/06/14 21:14:46;;;;;;;4.32;1.70;;;;;;;26.43;40.84;101987.84;5029780;28;20095;-70
2022/06/14 21:17:17;;;;;;;2.58;1.73;;;;;;;26.43;40.72;102001.22;5030845;28;20785;-70
2022/06/14 21:19:43;;;;;;;2.92;1.85;;;;;;;26.54;40.60;101999.91;5030299;28;20037;-70
2022/06/14 21:22:15;;;;;;;4.45;2.00;;;;;;;26.54;40.58;102007.94;5030787;28;20059;-69
2022/06/14 21:24:50;;;;;;;4.28;1.80;;;;;;;26.45;40.67;102010.94;5029673;28;20028;-69
2022/06/14 21:27:21;;;;;;;4.45;1.95;;;;;;;26.39;40.84;102010.28;5045605;28;20029;-70
2022/06/14 21:29:54;;;;;;;3.15;1.88;;;;;;;26.41;40.85;102001.25;5030466;28;20116;-70
2022/06/14 21:32:22;;;;;;;3.45;2.00;;;;;;;26.38;40.82;101998.72;5030194;28;20049;-70
2022/06/14 21:34:55;;;;;;;3.88;1.75;;;;;;;26.35;40.96;101998.81;5029790;28;20048;-70
2022/06/14 21:37:36;;;;;;;5.93;2.20;;;;;;;26.36;41.03;101997.00;5030441;28;20025;-69
2022/06/14 21:40:28;;;;;;;3.22;1.75;;;;;;;26.48;40.78;101989.44;5030677;28;20112;-72
2022/06/14 21:42:58;;;;;;;4.93;1.77;;;;;;;26.46;40.78;101993.09;5029884;28;20033;-70
2022/06/14 21:45:31;;;;;;;3.70;1.80;;;;;;;26.40;40.82;101990.66;5028312;28;20513;-69
2022/06/14 21:48:04;;;;;;;8.98;2.10;;;;;;;26.38;40.68;101997.84;5028707;28;20033;-69
2022/06/14 21:50:32;;;;;;;4.80;1.83;;;;;;;26.36;40.54;102003.22;5028542;28;20036;-69
2022/06/14 21:53:00;;;;;;;9.73;2.10;;;;;;;26.36;40.59;102003.22;5030122;28;20476;-69
2022/06/14 21:55:27;;;;;;;3.78;1.85;;;;;;;26.35;40.75;102000.63;5029557;28;20088;-69
2022/06/14 21:58:00;;;;;;;4.22;2.00;;;;;;;26.33;40.63;102000.69;5029771;28;20442;-69
2022/06/14 22:00:44;;;;;;;3.65;1.80;;;;;;;26.32;40.72;101996.25;5029468;28;20028;-69
2022/06/14 22:03:18;;;;;;;;;;;;;;;26.35;40.69;102005.97;5029974;28;20087;-69
2022/06/14 22:05:43;;;;;;;4.57;1.63;;;;;;;26.33;40.90;101994.44;5029755;28;19913;-69
2022/06/14 22:08:09;;;;;;;5.43;1.80;;;;;;;26.32;40.89;101995.38;5029626;28;20373;-69
2022/06/14 22:10:34;;;;;;;4.25;1.77;;;;;;;26.30;41.05;101999.88;5028869;28;20033;-68
2022/06/14 22:13:00;;;;;;;4.45;1.80;;;;;;;26.29;41.16;101999.00;5029541;28;20032;-70
2022/06/14 22:15:25;;;;;;;5.82;1.85;;;;;;;26.30;41.05;101995.41;5029425;28;20060;-69
2022/06/14 22:17:51;;;;;;;4.22;1.95;;;;;;;26.30;40.56;101994.53;5028440;28;20029;-69
2022/06/14 22:20:16;;;;;;;5.13;1.70;;;;;;;26.24;41.07;101995.63;5029399;28;20037;-69
2022/06/14 22:22:42;;;;;;;3.67;1.70;;;;;;;26.24;41.09;102000.97;5029641;28;20021;-69
2022/06/14 22:25:07;;;;;;;3.75;1.70;;;;;;;26.23;41.00;101993.84;5028163;28;20030;-69
2022/06/14 22:27:36;;;;;;;3.58;1.70;;;;;;;26.23;41.00;102000.09;5029711;28;20037;-69
2022/06/14 22:30:08;;;;;;;3.20;1.70;;;;;;;26.19;41.15;101998.44;5028904;28;20539;-69
2022/06/14 22:32:34;;;;;;;3.92;1.90;;;;;;;26.21;41.09;101998.38;5029160;28;20704;-69
2022/06/14 22:35:10;;;;;;;3.63;1.70;;;;;;;26.18;40.78;101996.69;5029367;28;20052;-69
2022/06/14 22:37:40;;;;;;;3.97;1.80;;;;;;;26.19;41.16;101994.88;5029168;28;20380;-69
2022/06/14 22:40:07;;;;;;;4.45;1.73;;;;;;;26.18;40.92;101993.13;5028502;28;20037;-69
2022/06/14 22:42:32;;;;;;;4.50;1.85;;;;;;;26.19;41.11;102002.91;5031341;28;20037;-69
2022/06/14 22:44:58;;;;;;;4.03;1.90;;;;;;;26.17;41.02;101989.56;5029115;28;20037;-69
2022/06/14 22:47:23;;;;;;;3.13;1.60;;;;;;;26.16;40.93;101989.66;5029268;28;20728;-69
2022/06/14 22:49:49;;;;;;;3.70;1.70;;;;;;;26.15;41.05;101991.44;5028678;28;20503;-69
2022/06/14 22:52:16;;;;;;;3.95;1.80;;;;;;;26.13;40.96;101989.75;5029181;28;20061;-69
2022/06/14 22:54:42;;;;;;;3.17;1.63;;;;;;;26.13;41.15;101995.97;5029035;28;20036;-69
2022/06/14 22:57:20;;;;;;;3.38;1.77;;;;;;;26.12;41.01;101993.34;5027573;28;20826;-69
2022/06/14 22:59:45;;;;;;;4.70;1.70;;;;;;;25.93;41.53;101993.06;5029028;28;20135;-69
2022/06/14 23:02:11;;;;;;;2.45;1.58;;;;;;;25.85;41.82;101984.44;5028779;28;20196;-69
2022/06/14 23:04:36;;;;;;;4.10;1.70;;;;;;;25.84;41.44;101991.59;5043654;28;20025;-69
2022/06/14 23:07:02;;;;;;;2.53;1.60;;;;;;;26.02;41.46;101986.56;5028864;28;20025;-69
2022/06/14 23:09:29;;;;;;;2.65;1.70;;;;;;;26.04;41.16;101985.59;5028344;28;20057;-69
2022/06/14 23:11:55;;;;;;;2.55;1.67;;;;;;;26.06;41.05;101991.75;5028727;28;20029;-69
2022/06/14 23:14:21;;;;;;;3.40;1.70;;;;;;;25.83;41.47;101992.50;5028736;28;20463;-69
2022/06/14 23:16:49;;;;;;;3.53;1.58;;;;;;;25.77;41.62;101995.38;5028880;28;20040;-69
2022/06/14 23:19:15;;;;;;;2.42;1.70;;;;;;;25.75;41.67;101991.88;5028290;28;20041;-69
2022/06/14 23:21:41;;;;;;;4.70;1.70;;;;;;;25.74;41.62;101994.56;5027019;28;20037;-69
2022/06/14 23:24:07;;;;;;;2.97;1.75;;;;;;;25.73;41.67;101995.53;5028851;28;20468;-69
2022/06/14 23:26:33;;;;;;;3.58;1.70;;;;;;;25.70;41.73;101993.81;5028775;28;20563;-69
2022/06/14 23:28:59;;;;;;;3.30;1.75;;;;;;;25.71;41.69;101995.56;5028517;28;20034;-69
2022/06/14 23:31:25;;;;;;;2.03;1.55;;;;;;;25.68;41.90;101995.66;5026187;28;20454;-69
2022/06/14 23:33:50;;;;;;;1.95;1.40;;;;;;;25.67;41.63;102001.06;5028322;28;20041;-69
2022/06/14 23:36:16;;;;;;;2.65;1.70;;;;;;;25.68;41.73;101995.66;5028372;28;20471;-69
2022/06/14 23:38:41;;;;;;;2.72;1.55;;;;;;;25.65;42.00;101995.75;5027110;28;20033;-69
2022/06/14 23:41:07;;;;;;;3.30;1.75;;;;;;;25.64;42.09;101990.47;5026795;28;20487;-69
2022/06/14 23:43:34;;;;;;;3.17;1.80;;;;;;;25.63;41.86;101986.03;5028501;28;20021;-69
2022/06/14 23:46:00;;;;;;;3.35;1.80;;;;;;;25.60;42.00;101989.69;5028470;28;20033;-69
2022/06/14 23:48:26;;;;;;;3.97;1.73;;;;;;;25.61;41.88;101982.56;5028080;28;20032;-69
2022/06/14 23:50:56;;;;;;;3.13;1.80;;;;;;;25.60;42.20;101984.34;5026746;28;20037;-69
2022/06/14 23:53:21;;;;;;;2.35;1.60;;;;;;;25.61;42.09;101982.56;5028017;28;20705;-69
2022/06/14 23:55:48;;;;;;;4.85;1.55;;;;;;;25.58;42.19;101978.19;5027759;28;20033;-69
2022/06/14 23:58:15;;;;;;;3.45;1.50;;;;;;;25.59;42.28;101974.59;5028316;28;20041;-69
